createdAt,value
2022-12-31T00:00:21.767Z,100
2022-12-31T00:01:22.917Z,100
2022-12-31T00:02:24.158Z,100
2022-12-31T00:03:25.756Z,100
2022-12-31T00:04:26.933Z,100
2022-12-31T00:05:27.871Z,100
2022-12-31T00:06:28.779Z,100
2022-12-31T00:07:29.679Z,100
2022-12-31T00:08:30.682Z,100
2022-12-31T00:09:31.597Z,100
2022-12-31T00:10:32.521Z,100
2022-12-31T00:11:33.410Z,100
2022-12-31T00:12:34.323Z,100
2022-12-31T00:13:35.244Z,100
2022-12-31T00:14:36.145Z,100
2022-12-31T00:15:37.040Z,100
2022-12-31T00:16:38.201Z,100
2022-12-31T00:17:39.303Z,100
2022-12-31T00:18:40.268Z,100
2022-12-31T00:19:41.222Z,100
2022-12-31T00:20:42.167Z,100
2022-12-31T00:21:43.085Z,100
2022-12-31T00:22:43.976Z,100
2022-12-31T00:23:44.871Z,100
2022-12-31T00:24:45.772Z,100
2022-12-31T00:25:46.682Z,100
2022-12-31T00:26:47.552Z,100
2022-12-31T00:27:48.463Z,100
2022-12-31T00:28:49.351Z,100
2022-12-31T00:29:50.282Z,100
2022-12-31T00:30:51.223Z,100
2022-12-31T00:31:52.225Z,100
2022-12-31T00:32:53.090Z,100
2022-12-31T00:33:54.042Z,100
2022-12-31T00:34:54.940Z,100
2022-12-31T00:35:55.852Z,100
2022-12-31T00:36:56.742Z,100
2022-12-31T00:37:57.626Z,100
2022-12-31T00:38:58.542Z,100
2022-12-31T00:39:59.457Z,100
2022-12-31T00:41:00.364Z,100
2022-12-31T00:42:01.285Z,100
2022-12-31T00:43:02.202Z,100
2022-12-31T00:44:03.132Z,100
2022-12-31T00:45:04.224Z,100
2022-12-31T00:46:05.326Z,100
2022-12-31T00:47:06.468Z,100
2022-12-31T00:48:07.363Z,100
2022-12-31T00:49:08.312Z,100
2022-12-31T00:50:09.287Z,100
2022-12-31T00:51:10.258Z,100
2022-12-31T00:52:11.173Z,100
2022-12-31T00:53:12.056Z,100
2022-12-31T00:54:12.942Z,100
2022-12-31T00:55:13.836Z,100
2022-12-31T00:56:14.758Z,100
2022-12-31T00:57:15.672Z,100
2022-12-31T00:58:16.580Z,100
2022-12-31T00:59:17.453Z,100
2022-12-31T01:00:18.368Z,100
2022-12-31T01:01:19.625Z,100
2022-12-31T01:02:21.711Z,100
2022-12-31T01:03:23.188Z,100
2022-12-31T01:04:24.294Z,100
2022-12-31T01:05:25.334Z,100
2022-12-31T01:06:26.256Z,100
2022-12-31T01:07:27.140Z,100
2022-12-31T01:08:28.057Z,100
2022-12-31T01:09:28.955Z,100
2022-12-31T01:10:29.837Z,100
2022-12-31T01:11:30.737Z,100
2022-12-31T01:12:31.633Z,100
2022-12-31T01:13:32.536Z,100
2022-12-31T01:14:33.421Z,100
2022-12-31T01:15:34.443Z,100
2022-12-31T01:16:35.434Z,100
2022-12-31T01:17:36.330Z,100
2022-12-31T01:18:37.214Z,100
2022-12-31T01:19:38.178Z,100
2022-12-31T01:20:39.084Z,100
2022-12-31T01:21:39.973Z,100
2022-12-31T01:22:40.860Z,100
2022-12-31T01:23:41.767Z,100
2022-12-31T01:24:42.692Z,100
2022-12-31T01:25:43.563Z,100
2022-12-31T01:26:44.427Z,100
2022-12-31T01:27:45.340Z,100
2022-12-31T01:28:46.373Z,100
2022-12-31T01:29:47.452Z,100
2022-12-31T01:30:48.465Z,100
2022-12-31T01:31:49.585Z,100
2022-12-31T01:32:50.479Z,100
2022-12-31T01:33:51.392Z,100
2022-12-31T01:34:52.434Z,100
2022-12-31T01:35:53.385Z,100
2022-12-31T01:36:54.299Z,100
2022-12-31T01:37:55.198Z,100
2022-12-31T01:38:56.468Z,100
2022-12-31T01:39:57.397Z,100
2022-12-31T01:40:58.319Z,100
2022-12-31T01:41:59.189Z,100
2022-12-31T01:43:00.068Z,100
2022-12-31T01:44:00.972Z,100
2022-12-31T01:45:01.856Z,100
2022-12-31T01:46:02.842Z,100
2022-12-31T01:47:03.975Z,100
2022-12-31T01:48:04.963Z,100
2022-12-31T01:49:05.836Z,100
2022-12-31T01:50:06.822Z,100
2022-12-31T01:51:07.922Z,100
2022-12-31T01:52:08.802Z,100
2022-12-31T01:53:09.702Z,100
2022-12-31T01:54:10.627Z,100
2022-12-31T01:55:11.517Z,100
2022-12-31T01:56:12.446Z,100
2022-12-31T01:57:13.361Z,100
2022-12-31T01:58:14.246Z,100
2022-12-31T01:59:15.142Z,100
2022-12-31T02:00:16.040Z,100
2022-12-31T02:01:17.224Z,100
2022-12-31T02:02:18.771Z,100
2022-12-31T02:03:20.364Z,100
2022-12-31T02:04:21.335Z,100
2022-12-31T02:05:22.327Z,100
2022-12-31T02:06:23.389Z,100
2022-12-31T02:07:24.333Z,100
2022-12-31T02:08:25.235Z,100
2022-12-31T02:09:26.121Z,100
2022-12-31T02:10:27.048Z,100
2022-12-31T02:11:27.988Z,100
2022-12-31T02:12:29.174Z,100
2022-12-31T02:13:30.436Z,100
2022-12-31T02:14:31.321Z,100
2022-12-31T02:15:32.204Z,100
2022-12-31T02:16:33.099Z,100
2022-12-31T02:17:34.009Z,100
2022-12-31T02:18:34.901Z,100
2022-12-31T02:19:35.785Z,100
2022-12-31T02:20:36.724Z,100
2022-12-31T02:21:37.644Z,100
2022-12-31T02:22:39.068Z,100
2022-12-31T02:23:40.847Z,100
2022-12-31T02:24:41.729Z,100
2022-12-31T02:25:42.585Z,100
2022-12-31T02:26:43.481Z,100
2022-12-31T02:27:44.394Z,100
2022-12-31T02:28:45.296Z,100
2022-12-31T02:29:46.217Z,100
2022-12-31T02:30:47.106Z,100
2022-12-31T02:31:47.993Z,100
2022-12-31T02:32:48.900Z,100
2022-12-31T02:33:49.778Z,100
2022-12-31T02:34:50.713Z,100
2022-12-31T02:35:51.681Z,100
2022-12-31T02:36:52.810Z,100
2022-12-31T02:37:53.709Z,100
2022-12-31T02:38:54.605Z,100
2022-12-31T02:39:55.512Z,100
2022-12-31T02:40:56.388Z,100
2022-12-31T02:41:57.294Z,100
2022-12-31T02:42:58.265Z,100
2022-12-31T02:43:59.234Z,100
2022-12-31T02:45:00.203Z,100
2022-12-31T02:46:01.155Z,100
2022-12-31T02:47:02.052Z,100
2022-12-31T02:48:02.947Z,100
2022-12-31T02:49:03.860Z,100
2022-12-31T02:50:04.753Z,100
2022-12-31T02:51:05.667Z,100
2022-12-31T02:52:06.624Z,100
2022-12-31T02:53:07.505Z,100
2022-12-31T02:54:08.387Z,100
2022-12-31T02:55:09.270Z,100
2022-12-31T02:56:10.241Z,100
2022-12-31T02:57:11.179Z,100
2022-12-31T02:58:12.095Z,100
2022-12-31T02:59:12.972Z,100
2022-12-31T03:00:13.863Z,100
2022-12-31T03:01:15.023Z,100
2022-12-31T03:02:17.139Z,100
2022-12-31T03:03:18.578Z,100
2022-12-31T03:04:19.465Z,100
2022-12-31T03:05:20.328Z,100
2022-12-31T03:06:21.395Z,100
2022-12-31T03:07:22.403Z,100
2022-12-31T03:08:23.314Z,100
2022-12-31T03:09:24.203Z,100
2022-12-31T03:10:25.221Z,100
2022-12-31T03:11:26.150Z,100
2022-12-31T03:12:27.065Z,100
2022-12-31T03:13:27.954Z,100
2022-12-31T03:14:28.834Z,100
2022-12-31T03:15:29.713Z,100
2022-12-31T03:16:30.803Z,100
2022-12-31T03:17:31.899Z,100
2022-12-31T03:18:32.788Z,100
2022-12-31T03:19:33.671Z,100
2022-12-31T03:20:34.551Z,100
2022-12-31T03:21:35.522Z,100
2022-12-31T03:22:36.592Z,100
2022-12-31T03:23:37.481Z,100
2022-12-31T03:24:38.371Z,100
2022-12-31T03:25:39.249Z,100
2022-12-31T03:26:40.145Z,100
2022-12-31T03:27:41.059Z,100
2022-12-31T03:28:42.031Z,100
2022-12-31T03:29:43.042Z,100
2022-12-31T03:30:43.972Z,100
2022-12-31T03:31:45.052Z,100
2022-12-31T03:32:46.110Z,100
2022-12-31T03:33:46.987Z,100
2022-12-31T03:34:47.938Z,100
2022-12-31T03:35:48.865Z,100
2022-12-31T03:36:49.920Z,100
2022-12-31T03:37:50.852Z,100
2022-12-31T03:38:53.173Z,100
2022-12-31T03:39:54.057Z,100
2022-12-31T03:40:54.969Z,100
2022-12-31T03:41:55.853Z,100
2022-12-31T03:42:56.824Z,100
2022-12-31T03:43:57.739Z,100
2022-12-31T03:44:58.645Z,100
2022-12-31T03:45:59.955Z,100
2022-12-31T03:47:01.007Z,100
2022-12-31T03:48:02.305Z,100
2022-12-31T03:49:03.211Z,100
2022-12-31T03:50:04.083Z,100
2022-12-31T03:51:04.985Z,100
2022-12-31T03:52:05.937Z,100
2022-12-31T03:53:06.901Z,100
2022-12-31T03:54:07.800Z,100
2022-12-31T03:55:08.699Z,100
2022-12-31T03:56:09.574Z,100
2022-12-31T03:57:10.481Z,100
2022-12-31T03:58:11.399Z,100
2022-12-31T03:59:12.334Z,100
2022-12-31T04:00:13.223Z,100
2022-12-31T04:01:14.399Z,100
2022-12-31T04:02:16.025Z,100
2022-12-31T04:03:17.852Z,100
2022-12-31T04:04:18.907Z,100
2022-12-31T04:05:19.811Z,100
2022-12-31T04:06:20.720Z,100
2022-12-31T04:07:21.656Z,100
2022-12-31T04:08:22.574Z,100
2022-12-31T04:09:23.473Z,100
2022-12-31T04:10:24.356Z,100
2022-12-31T04:11:25.278Z,100
2022-12-31T04:12:26.176Z,100
2022-12-31T04:13:27.337Z,100
2022-12-31T04:14:28.233Z,100
2022-12-31T04:15:29.130Z,100
2022-12-31T04:16:30.192Z,100
2022-12-31T04:17:31.238Z,100
2022-12-31T04:18:32.728Z,100
2022-12-31T04:19:33.639Z,100
2022-12-31T04:20:34.547Z,100
2022-12-31T04:21:35.623Z,100
2022-12-31T04:22:36.606Z,100
2022-12-31T04:23:37.555Z,100
2022-12-31T04:24:38.443Z,100
2022-12-31T04:25:39.321Z,100
2022-12-31T04:26:40.222Z,100
2022-12-31T04:27:41.139Z,100
2022-12-31T04:28:42.194Z,100
2022-12-31T04:29:43.078Z,100
2022-12-31T04:30:43.991Z,100
2022-12-31T04:31:45.477Z,100
2022-12-31T04:32:46.649Z,100
2022-12-31T04:33:47.569Z,100
2022-12-31T04:34:48.455Z,100
2022-12-31T04:35:49.393Z,100
2022-12-31T04:36:50.303Z,100
2022-12-31T04:37:51.331Z,100
2022-12-31T04:38:52.325Z,100
2022-12-31T04:39:53.211Z,100
2022-12-31T04:40:54.137Z,100
2022-12-31T04:41:55.041Z,100
2022-12-31T04:42:55.969Z,100
2022-12-31T04:43:56.888Z,100
2022-12-31T04:44:57.799Z,100
2022-12-31T04:45:58.879Z,100
2022-12-31T04:46:59.918Z,100
2022-12-31T04:48:00.841Z,100
2022-12-31T04:49:01.732Z,100
2022-12-31T04:50:02.646Z,100
2022-12-31T04:51:03.555Z,100
2022-12-31T04:52:04.464Z,100
2022-12-31T04:53:05.470Z,100
2022-12-31T04:54:06.413Z,100
2022-12-31T04:55:07.335Z,100
2022-12-31T04:56:08.279Z,100
2022-12-31T04:57:09.244Z,100
2022-12-31T04:58:10.172Z,100
2022-12-31T04:59:11.053Z,100
2022-12-31T05:00:11.959Z,100
2022-12-31T05:01:13.100Z,100
2022-12-31T05:02:15.102Z,100
2022-12-31T05:03:16.816Z,100
2022-12-31T05:04:17.840Z,100
2022-12-31T05:05:18.731Z,100
2022-12-31T05:06:19.621Z,100
2022-12-31T05:07:20.555Z,100
2022-12-31T05:08:21.549Z,100
2022-12-31T05:09:22.579Z,100
2022-12-31T05:10:23.452Z,100
2022-12-31T05:11:24.344Z,100
2022-12-31T05:12:25.265Z,100
2022-12-31T05:13:33.836Z,100
2022-12-31T05:14:28.457Z,100
2022-12-31T05:15:29.363Z,100
2022-12-31T05:16:30.405Z,100
2022-12-31T05:17:31.422Z,100
2022-12-31T05:18:32.374Z,100
2022-12-31T05:19:33.289Z,100
2022-12-31T05:20:34.217Z,100
2022-12-31T05:21:35.099Z,100
2022-12-31T05:22:36.001Z,100
2022-12-31T05:23:36.933Z,100
2022-12-31T05:24:37.863Z,100
2022-12-31T05:25:38.733Z,100
2022-12-31T05:26:39.617Z,100
2022-12-31T05:27:40.523Z,100
2022-12-31T05:28:41.461Z,100
2022-12-31T05:29:42.364Z,100
2022-12-31T05:30:43.386Z,100
2022-12-31T05:31:44.438Z,100
2022-12-31T05:32:45.334Z,100
2022-12-31T05:33:46.252Z,100
2022-12-31T05:34:47.135Z,100
2022-12-31T05:35:48.050Z,100
2022-12-31T05:36:48.953Z,100
2022-12-31T05:37:49.838Z,100
2022-12-31T05:38:50.812Z,100
2022-12-31T05:39:51.881Z,100
2022-12-31T05:40:52.776Z,100
2022-12-31T05:41:53.656Z,100
2022-12-31T05:42:54.548Z,100
2022-12-31T05:43:55.462Z,100
2022-12-31T05:44:56.488Z,100
2022-12-31T05:45:57.718Z,100
2022-12-31T05:46:58.769Z,100
2022-12-31T05:47:59.660Z,100
2022-12-31T05:49:00.555Z,100
2022-12-31T05:50:01.481Z,100
2022-12-31T05:51:02.438Z,100
2022-12-31T05:52:03.399Z,100
2022-12-31T05:53:04.322Z,100
2022-12-31T05:54:05.252Z,100
2022-12-31T05:55:06.247Z,100
2022-12-31T05:56:07.139Z,100
2022-12-31T05:57:08.122Z,100
2022-12-31T05:58:09.032Z,100
2022-12-31T05:59:09.944Z,100
2022-12-31T06:00:10.862Z,100
2022-12-31T06:01:11.952Z,100
2022-12-31T06:02:13.169Z,100
2022-12-31T06:03:14.742Z,100
2022-12-31T06:04:16.104Z,100
2022-12-31T06:05:26.046Z,100
2022-12-31T06:06:18.130Z,100
2022-12-31T06:07:19.035Z,100
2022-12-31T06:08:20.067Z,100
2022-12-31T06:09:21.020Z,100
2022-12-31T06:10:21.985Z,100
2022-12-31T06:11:22.867Z,100
2022-12-31T06:12:23.784Z,100
2022-12-31T06:13:24.665Z,100
2022-12-31T06:14:25.557Z,100
2022-12-31T06:15:26.503Z,100
2022-12-31T06:16:27.407Z,100
2022-12-31T06:17:28.325Z,100
2022-12-31T06:18:29.394Z,100
2022-12-31T06:19:30.295Z,100
2022-12-31T06:20:31.230Z,100
2022-12-31T06:21:32.202Z,100
2022-12-31T06:22:33.146Z,100
2022-12-31T06:23:34.054Z,100
2022-12-31T06:24:35.046Z,100
2022-12-31T06:25:36.100Z,100
2022-12-31T06:26:36.997Z,100
2022-12-31T06:27:37.900Z,100
2022-12-31T06:28:38.796Z,100
2022-12-31T06:29:39.687Z,100
2022-12-31T06:30:40.574Z,100
2022-12-31T06:31:41.463Z,100
2022-12-31T06:32:42.387Z,100
2022-12-31T06:33:43.285Z,100
2022-12-31T06:34:44.199Z,100
2022-12-31T06:35:45.118Z,100
2022-12-31T06:36:46.019Z,100
2022-12-31T06:37:46.939Z,100
2022-12-31T06:38:47.849Z,100
2022-12-31T06:39:48.796Z,100
2022-12-31T06:40:49.834Z,100
2022-12-31T06:41:50.728Z,100
2022-12-31T06:43:00.249Z,100
2022-12-31T06:43:52.067Z,100
2022-12-31T06:44:52.967Z,100
2022-12-31T06:45:53.874Z,100
2022-12-31T06:46:54.966Z,100
2022-12-31T06:47:56.070Z,100
2022-12-31T06:48:56.970Z,100
2022-12-31T06:49:57.907Z,100
2022-12-31T06:50:58.802Z,100
2022-12-31T06:51:59.713Z,100
2022-12-31T06:53:00.613Z,100
2022-12-31T06:54:01.634Z,100
2022-12-31T06:55:02.692Z,100
2022-12-31T06:56:03.743Z,100
2022-12-31T06:57:04.655Z,100
2022-12-31T06:58:05.611Z,100
2022-12-31T06:59:06.498Z,100
2022-12-31T07:00:07.464Z,100
2022-12-31T07:01:08.707Z,100
2022-12-31T07:02:09.832Z,100
2022-12-31T07:03:11.114Z,100
2022-12-31T07:04:12.374Z,100
2022-12-31T07:05:13.268Z,100
2022-12-31T07:06:14.181Z,100
2022-12-31T07:07:15.069Z,100
2022-12-31T07:08:15.952Z,100
2022-12-31T07:09:16.881Z,100
2022-12-31T07:10:17.842Z,100
2022-12-31T07:11:18.785Z,100
2022-12-31T07:12:19.833Z,100
2022-12-31T07:13:20.720Z,100
2022-12-31T07:14:21.621Z,100
2022-12-31T07:15:22.538Z,100
2022-12-31T07:16:23.529Z,100
2022-12-31T07:17:24.546Z,100
2022-12-31T07:18:25.466Z,100
2022-12-31T07:19:26.396Z,100
2022-12-31T07:20:27.355Z,100
2022-12-31T07:21:28.252Z,100
2022-12-31T07:22:29.162Z,100
2022-12-31T07:23:30.082Z,100
2022-12-31T07:24:30.954Z,100
2022-12-31T07:25:31.896Z,100
2022-12-31T07:26:32.920Z,100
2022-12-31T07:27:33.825Z,100
2022-12-31T07:28:34.722Z,100
2022-12-31T07:29:35.768Z,100
2022-12-31T07:30:36.687Z,100
2022-12-31T07:31:37.641Z,100
2022-12-31T07:32:38.690Z,100
2022-12-31T07:33:39.583Z,100
2022-12-31T07:34:40.842Z,100
2022-12-31T07:35:41.846Z,100
2022-12-31T07:36:42.743Z,100
2022-12-31T07:37:43.631Z,100
2022-12-31T07:38:44.507Z,100
2022-12-31T07:39:45.382Z,100
2022-12-31T07:40:46.355Z,100
2022-12-31T07:41:47.463Z,100
2022-12-31T07:42:48.344Z,100
2022-12-31T07:43:49.244Z,100
2022-12-31T07:44:50.153Z,100
2022-12-31T07:45:51.062Z,100
2022-12-31T07:46:52.175Z,100
2022-12-31T07:48:02.875Z,100
2022-12-31T07:48:54.627Z,100
2022-12-31T07:49:55.518Z,100
2022-12-31T07:50:56.474Z,100
2022-12-31T07:51:57.476Z,100
2022-12-31T07:52:58.366Z,100
2022-12-31T07:53:59.290Z,100
2022-12-31T07:55:00.296Z,100
2022-12-31T07:56:01.249Z,100
2022-12-31T07:57:02.254Z,100
2022-12-31T07:58:03.137Z,100
2022-12-31T07:59:02.185Z,100
2022-12-31T08:00:03.095Z,100
2022-12-31T08:01:04.344Z,100
2022-12-31T08:02:05.681Z,100
2022-12-31T08:03:06.893Z,100
2022-12-31T08:04:07.816Z,100
2022-12-31T08:05:09.107Z,100
2022-12-31T08:06:10.137Z,100
2022-12-31T08:07:11.093Z,100
2022-12-31T08:08:12.003Z,100
2022-12-31T08:09:12.924Z,100
2022-12-31T08:10:18.493Z,100
2022-12-31T08:11:16.401Z,100
2022-12-31T08:12:17.304Z,100
2022-12-31T08:13:18.301Z,100
2022-12-31T08:13:32.664Z,100
2022-12-31T08:14:33.646Z,100
2022-12-31T08:15:34.544Z,100
2022-12-31T08:16:35.583Z,100
2022-12-31T08:17:36.695Z,100
2022-12-31T08:18:37.651Z,100
2022-12-31T08:19:38.598Z,100
2022-12-31T08:20:39.513Z,100
2022-12-31T08:21:40.334Z,100
2022-12-31T08:22:41.218Z,100
2022-12-31T08:23:42.115Z,100
2022-12-31T08:24:46.029Z,100
2022-12-31T08:25:43.780Z,100
2022-12-31T08:26:53.261Z,100
2022-12-31T08:27:45.149Z,100
2022-12-31T08:28:46.065Z,100
2022-12-31T08:29:46.966Z,100
2022-12-31T08:30:47.898Z,100
2022-12-31T08:31:43.683Z,100
2022-12-31T08:32:44.922Z,100
2022-12-31T08:33:45.827Z,100
2022-12-31T08:34:46.751Z,100
2022-12-31T08:35:47.668Z,100
2022-12-31T08:36:48.639Z,100
2022-12-31T08:37:49.522Z,100
2022-12-31T08:38:50.411Z,100
2022-12-31T08:39:51.320Z,100
2022-12-31T08:40:52.285Z,100
2022-12-31T08:41:53.240Z,100
2022-12-31T08:42:54.182Z,100
2022-12-31T08:43:55.242Z,100
2022-12-31T08:44:56.164Z,100
2022-12-31T08:45:57.151Z,100
2022-12-31T08:46:58.326Z,100
2022-12-31T08:48:00.545Z,100
2022-12-31T08:49:01.513Z,100
2022-12-31T08:50:02.552Z,100
2022-12-31T08:51:04.718Z,100
2022-12-31T08:52:05.876Z,100
2022-12-31T08:53:06.783Z,100
2022-12-31T08:54:07.724Z,100
2022-12-31T08:55:08.653Z,100
2022-12-31T08:56:09.560Z,100
2022-12-31T08:57:10.544Z,100
2022-12-31T08:58:11.681Z,100
2022-12-31T08:59:12.654Z,100
2022-12-31T09:00:13.549Z,100
2022-12-31T09:01:14.948Z,100
2022-12-31T09:02:16.370Z,100
2022-12-31T09:03:17.507Z,100
2022-12-31T09:04:19.038Z,100
2022-12-31T09:05:20.075Z,100
2022-12-31T09:06:20.965Z,100
2022-12-31T09:06:35.130Z,100
2022-12-31T09:07:36.140Z,100
2022-12-31T09:08:37.086Z,100
2022-12-31T09:09:37.989Z,100
2022-12-31T09:10:38.896Z,100
2022-12-31T09:11:23.688Z,100
2022-12-31T09:12:18.446Z,100
2022-12-31T09:13:19.372Z,100
2022-12-31T09:14:05.785Z,100
2022-12-31T09:15:06.708Z,100
2022-12-31T09:16:07.859Z,100
2022-12-31T09:17:09.102Z,100
2022-12-31T09:18:10.003Z,100
2022-12-31T09:19:10.977Z,100
2022-12-31T09:20:12.061Z,100
2022-12-31T09:21:12.967Z,100
2022-12-31T09:22:14.030Z,100
2022-12-31T09:23:15.211Z,100
2022-12-31T09:24:16.245Z,100
2022-12-31T09:25:17.223Z,100
2022-12-31T09:26:18.257Z,100
2022-12-31T09:27:28.099Z,100
2022-12-31T09:28:19.766Z,100
2022-12-31T09:29:20.699Z,100
2022-12-31T09:30:21.856Z,100
2022-12-31T09:30:26.645Z,100
2022-12-31T09:31:27.681Z,100
2022-12-31T09:32:28.678Z,100
2022-12-31T09:33:29.596Z,100
2022-12-31T09:34:30.492Z,100
2022-12-31T09:35:31.419Z,100
2022-12-31T09:36:32.328Z,100
2022-12-31T09:37:33.307Z,100
2022-12-31T09:38:34.220Z,100
2022-12-31T09:39:35.148Z,100
2022-12-31T09:40:36.119Z,100
2022-12-31T09:41:37.025Z,100
2022-12-31T09:42:37.988Z,100
2022-12-31T09:43:39.004Z,100
2022-12-31T09:44:39.923Z,100
2022-12-31T09:45:41.115Z,100
2022-12-31T09:46:42.122Z,100
2022-12-31T09:47:43.034Z,100
2022-12-31T09:48:43.918Z,100
2022-12-31T09:49:44.813Z,100
2022-12-31T09:50:45.723Z,100
2022-12-31T09:51:46.657Z,100
2022-12-31T09:52:47.925Z,100
2022-12-31T09:53:48.973Z,100
2022-12-31T09:54:48.004Z,100
2022-12-31T09:55:48.930Z,100
2022-12-31T09:56:59.232Z,100
2022-12-31T09:57:50.903Z,100
2022-12-31T09:58:51.901Z,100
2022-12-31T09:59:52.992Z,100
2022-12-31T10:00:54.098Z,100
2022-12-31T10:01:18.406Z,100
2022-12-31T10:02:20.248Z,100
2022-12-31T10:03:21.962Z,100
2022-12-31T10:04:23.671Z,100
2022-12-31T10:05:24.588Z,100
2022-12-31T10:06:25.496Z,100
2022-12-31T10:07:26.387Z,100
2022-12-31T10:08:27.567Z,100
2022-12-31T10:09:28.470Z,100
2022-12-31T10:10:29.389Z,100
2022-12-31T10:11:30.284Z,100
2022-12-31T10:12:31.165Z,100
2022-12-31T10:13:32.431Z,100
2022-12-31T10:14:33.463Z,100
2022-12-31T10:15:34.372Z,100
2022-12-31T10:16:35.461Z,100
2022-12-31T10:17:36.446Z,100
2022-12-31T10:18:37.448Z,100
2022-12-31T10:19:38.348Z,100
2022-12-31T10:20:45.673Z,100
2022-12-31T10:21:40.325Z,100
2022-12-31T10:22:41.213Z,100
2022-12-31T10:22:49.054Z,100
2022-12-31T10:23:49.923Z,100
2022-12-31T10:24:51.222Z,100
2022-12-31T10:25:52.328Z,100
2022-12-31T10:26:19.284Z,100
2022-12-31T10:27:20.159Z,100
2022-12-31T10:28:21.056Z,100
2022-12-31T10:29:22.004Z,99.91
2022-12-31T10:29:39.493Z,100
2022-12-31T10:30:40.407Z,98.9
2022-12-31T10:31:41.620Z,98.93
2022-12-31T10:32:42.488Z,99.31
2022-12-31T10:33:43.358Z,99.57
2022-12-31T10:34:44.379Z,99.19
2022-12-31T10:35:45.421Z,98.89
2022-12-31T10:36:46.295Z,98.78
2022-12-31T10:37:47.317Z,97.67
2022-12-31T10:38:48.196Z,98.5
2022-12-31T10:39:49.104Z,97.67
2022-12-31T10:40:50.172Z,97.91
2022-12-31T10:41:51.058Z,97.91
2022-12-31T10:42:52.442Z,97.87
2022-12-31T10:43:53.314Z,98.73
2022-12-31T10:44:54.288Z,97.47
2022-12-31T10:45:55.531Z,96.96
2022-12-31T10:46:56.555Z,97.27
2022-12-31T10:47:57.416Z,97.27
2022-12-31T10:48:58.430Z,97.36
2022-12-31T10:49:59.411Z,96.7
2022-12-31T10:51:00.311Z,96.96
2022-12-31T10:52:01.505Z,95.09
2022-12-31T10:53:02.416Z,95.31
2022-12-31T10:54:03.336Z,95.69
2022-12-31T10:55:04.623Z,95.38
2022-12-31T10:56:05.656Z,94.87
2022-12-31T10:57:06.575Z,94.67
2022-12-31T10:58:07.501Z,94.68
2022-12-31T10:59:08.414Z,94.51
2022-12-31T11:00:09.430Z,93.78
2022-12-31T11:01:10.671Z,93.52
2022-12-31T11:02:12.416Z,93.8
2022-12-31T11:03:13.684Z,93.12
2022-12-31T11:04:14.693Z,93.01
2022-12-31T11:05:15.621Z,93.2
2022-12-31T11:06:16.521Z,92.99
2022-12-31T11:07:17.385Z,93.16
2022-12-31T11:08:18.335Z,92.25
2022-12-31T11:09:19.563Z,92.28
2022-12-31T11:10:20.411Z,91.98
2022-12-31T11:11:21.300Z,92.12
2022-12-31T11:12:22.233Z,91.84
2022-12-31T11:13:23.083Z,91
2022-12-31T11:14:24.025Z,91.01
2022-12-31T11:15:25.215Z,90.53
2022-12-31T11:16:26.442Z,90.63
2022-12-31T11:17:27.662Z,89.12
2022-12-31T11:18:28.527Z,88.94
2022-12-31T11:19:29.407Z,88.79
2022-12-31T11:20:30.590Z,88.27
2022-12-31T11:21:34.247Z,88.69
2022-12-31T11:22:32.327Z,88.73
2022-12-31T11:23:33.268Z,87.95
2022-12-31T11:24:32.198Z,88.38
2022-12-31T11:25:33.116Z,88.34
2022-12-31T11:26:33.995Z,88.05
2022-12-31T11:27:34.876Z,88.45
2022-12-31T11:28:35.759Z,64.65
2022-12-31T11:29:36.939Z,64.4
2022-12-31T11:30:38.296Z,64.32
2022-12-31T11:31:39.388Z,63.87
2022-12-31T11:32:40.298Z,62.82
2022-12-31T11:33:50.241Z,63.15
2022-12-31T11:34:41.968Z,63.04
2022-12-31T11:35:02.546Z,63.28
2022-12-31T11:36:03.469Z,62.51
2022-12-31T11:37:04.387Z,62.11
2022-12-31T11:38:05.303Z,61.75
2022-12-31T11:39:06.161Z,61.93
2022-12-31T11:40:07.053Z,61.41
2022-12-31T11:41:07.961Z,61.43
2022-12-31T11:42:08.942Z,60.9
2022-12-31T11:43:09.797Z,60.92
2022-12-31T11:44:10.644Z,60.48
2022-12-31T11:45:11.507Z,60.48
2022-12-31T11:46:12.559Z,60.35
2022-12-31T11:47:13.646Z,60
2022-12-31T11:48:32.507Z,59.89
2022-12-31T11:49:14.914Z,59.73
2022-12-31T11:50:15.799Z,59.41
2022-12-31T11:51:16.694Z,59.37
2022-12-31T11:51:53.521Z,59.33
2022-12-31T11:52:12.097Z,59.05
2022-12-31T11:53:15.123Z,58.49
2022-12-31T11:54:16.037Z,58.09
2022-12-31T11:55:16.999Z,58.43
2022-12-31T11:56:18.034Z,58.44
2022-12-31T11:57:19.291Z,58.16
2022-12-31T11:58:20.209Z,58.07
2022-12-31T11:59:21.084Z,58.01
2022-12-31T12:00:21.996Z,57.98
2022-12-31T12:01:23.043Z,57.21
2022-12-31T12:02:24.317Z,57.02
2022-12-31T12:03:25.642Z,56.41
2022-12-31T12:04:26.797Z,56.85
2022-12-31T12:05:27.728Z,56.31
2022-12-31T12:06:28.618Z,56.44
2022-12-31T12:07:29.500Z,56.8
2022-12-31T12:08:30.443Z,56.67
2022-12-31T12:09:31.328Z,55.69
2022-12-31T12:10:37.198Z,56.05
2022-12-31T12:11:35.141Z,56.4
2022-12-31T12:12:36.025Z,55.03
2022-12-31T12:13:36.922Z,55.17
2022-12-31T12:14:37.879Z,55.44
2022-12-31T12:15:38.860Z,54.7
2022-12-31T12:16:39.985Z,53.8
2022-12-31T12:17:41.175Z,53.6
2022-12-31T12:18:42.125Z,54.1
2022-12-31T12:19:43.072Z,53.73
2022-12-31T12:20:44.149Z,54.78
2022-12-31T12:21:45.069Z,54.75
2022-12-31T12:22:49.683Z,54.83
2022-12-31T12:23:47.377Z,54.02
2022-12-31T12:24:48.696Z,54.08
2022-12-31T12:25:49.630Z,54.52
2022-12-31T12:26:50.646Z,53.82
2022-12-31T12:27:51.621Z,53.43
2022-12-31T12:28:52.491Z,53.87
2022-12-31T12:29:53.357Z,53.17
2022-12-31T12:30:54.241Z,53.15
2022-12-31T12:31:55.220Z,53.72
2022-12-31T12:32:56.250Z,54.09
2022-12-31T12:33:57.141Z,54.21
2022-12-31T12:34:58.024Z,54.08
2022-12-31T12:35:58.950Z,54.38
2022-12-31T12:36:59.866Z,54.46
2022-12-31T12:38:00.803Z,54.37
2022-12-31T12:39:01.675Z,54.45
2022-12-31T12:40:02.781Z,54.75
2022-12-31T12:41:03.689Z,54.6
2022-12-31T12:42:04.676Z,54.42
2022-12-31T12:43:05.578Z,54.29
2022-12-31T12:44:06.608Z,54.54
2022-12-31T12:45:07.578Z,54.03
2022-12-31T12:46:08.471Z,54.53
2022-12-31T12:47:09.551Z,54.26
2022-12-31T12:48:10.570Z,54.31
2022-12-31T12:49:11.477Z,53.57
2022-12-31T12:50:12.455Z,54.06
2022-12-31T12:51:13.504Z,54.06
2022-12-31T12:52:14.355Z,54.03
2022-12-31T12:53:15.279Z,54.58
2022-12-31T12:54:16.262Z,54.73
2022-12-31T12:55:17.212Z,54.39
2022-12-31T12:56:18.329Z,54.68
2022-12-31T12:57:19.226Z,54.57
2022-12-31T12:58:20.196Z,54.32
2022-12-31T12:59:21.136Z,54.5
2022-12-31T13:00:22.057Z,54.45
2022-12-31T13:01:23.240Z,54.85
2022-12-31T13:02:24.917Z,55.25
2022-12-31T13:03:26.162Z,55.32
2022-12-31T13:04:35.929Z,55.04
2022-12-31T13:05:28.747Z,55.39
2022-12-31T13:06:29.762Z,55.28
2022-12-31T13:07:30.717Z,55.18
2022-12-31T13:08:31.704Z,55.47
2022-12-31T13:09:32.560Z,55.43
2022-12-31T13:10:33.505Z,55.32
2022-12-31T13:11:34.521Z,55.31
2022-12-31T13:13:23.660Z,55.44
2022-12-31T13:13:38.710Z,55.62
2022-12-31T13:14:39.585Z,55.98
2022-12-31T13:15:40.451Z,56.22
2022-12-31T13:16:41.593Z,56.04
2022-12-31T13:17:42.876Z,56.13
2022-12-31T13:18:45.350Z,55.92
2022-12-31T13:19:46.220Z,56.19
2022-12-31T13:20:48.239Z,56.18
2022-12-31T13:21:49.142Z,56.03
2022-12-31T13:22:50.115Z,56.8
2022-12-31T13:23:50.989Z,56.39
2022-12-31T13:24:51.856Z,56.04
2022-12-31T13:25:52.732Z,56.28
2022-12-31T13:26:53.623Z,56.04
2022-12-31T13:27:54.562Z,56.33
2022-12-31T13:28:55.434Z,56.53
2022-12-31T13:29:56.295Z,56.79
2022-12-31T13:31:06.931Z,56.76
2022-12-31T13:31:58.774Z,56.84
2022-12-31T13:33:00.000Z,56.73
2022-12-31T13:34:00.959Z,56.92
2022-12-31T13:35:01.961Z,56.59
2022-12-31T13:36:02.864Z,57.4
2022-12-31T13:37:03.744Z,57.01
2022-12-31T13:38:06.189Z,57.27
2022-12-31T13:39:07.114Z,57.29